Digby, Canada
Current Conditions -  °F | °C
As of 1:00 PM on Thursday 30 Oct 2014 (Local Time) from CYZX Reporting Station
Broken Clouds Broken Clouds  
Wind Chill: 54°   Ceiling: 22000
Heat Index: 54°   Visibility: 15mi
Dew Point: 41°   Wind: 14mph
Humidity: 62%   Direction: 260°W
Pressure: 29.82"   Gusts: NA
Location:  44.6°N, 65.75°W
Report Text: CYZX 301600Z 26012KT 15SM SCT030 BKN220 12/05 A2982 RMK SC3CI2 WNDY HILL 29012KT SLP100
Loading
Personal Weather Stations






























Interactive Weather Map
Tropical Storm Tracking
New forecast layout! Learn more

10-Day Weather Forecast

Advertisements
Track Severe Weather on mobile